createdAt,value
2022-10-22T00:01:03.378Z,93.35
2022-10-22T00:03:31.439Z,93.45
2022-10-22T00:05:59.377Z,93.68
2022-10-22T00:08:27.264Z,93.84
2022-10-22T00:10:55.081Z,92.60
2022-10-22T00:13:24.687Z,92.75
2022-10-22T00:15:52.539Z,93.06
2022-10-22T00:18:20.356Z,93.26
2022-10-22T00:20:48.154Z,93.20
2022-10-22T00:23:15.969Z,93.62
2022-10-22T00:25:43.831Z,93.25
2022-10-22T00:28:12.589Z,92.88
2022-10-22T00:30:42.119Z,93.06
2022-10-22T00:33:10.023Z,92.49
2022-10-22T00:35:37.891Z,92.83
2022-10-22T00:38:06.191Z,92.05
2022-10-22T00:40:34.029Z,93.49
2022-10-22T00:43:01.894Z,93.56
2022-10-22T00:45:30.132Z,93.13
2022-10-22T00:48:02.686Z,93.39
2022-10-22T00:50:35.415Z,92.96
2022-10-22T00:53:05.406Z,92.73
2022-10-22T00:55:34.205Z,91.53
2022-10-22T00:58:05.382Z,91.88
2022-10-22T01:00:33.383Z,91.94
2022-10-22T01:03:02.813Z,93.51
2022-10-22T01:05:40.401Z,93.19
2022-10-22T01:10:55.504Z,93.54
2022-10-22T01:13:32.995Z,94.08
2022-10-22T01:16:09.710Z,93.25
2022-10-22T01:18:48.879Z,93.63
2022-10-22T01:21:26.244Z,94.35
2022-10-22T01:24:10.058Z,94.21
2022-10-22T01:26:53.095Z,94.83
2022-10-22T01:29:34.659Z,94.37
2022-10-22T01:32:06.220Z,93.81
2022-10-22T01:34:35.507Z,93.86
2022-10-22T01:37:04.623Z,94.02
2022-10-22T01:39:33.288Z,93.51
2022-10-22T01:42:01.104Z,94.05
2022-10-22T01:44:32.054Z,93.48
2022-10-22T01:47:13.984Z,92.83
2022-10-22T01:50:03.823Z,93.12
2022-10-22T01:52:47.656Z,93.03
2022-10-22T01:55:26.321Z,92.34
2022-10-22T01:58:09.102Z,93.00
2022-10-22T02:00:41.158Z,92.71
2022-10-22T02:03:15.643Z,92.81
2022-10-22T02:05:48.575Z,93.74
2022-10-22T02:08:20.335Z,93.87
2022-10-22T02:10:49.637Z,92.65
2022-10-22T02:13:22.268Z,93.11
2022-10-22T02:15:53.532Z,92.42
2022-10-22T02:18:24.799Z,92.35
2022-10-22T02:20:54.435Z,92.21
2022-10-22T02:23:23.217Z,91.81
2022-10-22T02:25:58.481Z,92.40
2022-10-22T02:28:34.961Z,92.35
2022-10-22T02:31:09.343Z,92.89
2022-10-22T02:33:43.418Z,92.48
2022-10-22T02:36:12.678Z,91.73
2022-10-22T02:38:43.170Z,91.50
2022-10-22T02:41:11.523Z,91.88
2022-10-22T02:43:43.819Z,92.18
2022-10-22T02:46:13.369Z,91.68
2022-10-22T02:48:41.250Z,91.88
2022-10-22T02:51:09.070Z,93.04
2022-10-22T02:53:36.932Z,92.51
2022-10-22T02:56:04.898Z,92.57
2022-10-22T02:58:32.755Z,93.05
2022-10-22T03:01:00.636Z,92.47
2022-10-22T03:03:29.852Z,91.98
2022-10-22T03:05:57.671Z,92.60
2022-10-22T03:08:25.541Z,92.71
2022-10-22T03:10:53.405Z,91.80
2022-10-22T03:13:21.306Z,92.78
2022-10-22T03:15:50.343Z,91.77
2022-10-22T03:18:18.542Z,92.54
2022-10-22T03:20:47.712Z,92.30
2022-10-22T03:23:17.990Z,91.93
2022-10-22T03:25:48.136Z,91.47
2022-10-22T03:28:18.304Z,91.77
2022-10-22T03:30:46.150Z,92.01
2022-10-22T03:33:14.021Z,92.13
2022-10-22T03:35:46.195Z,92.07
2022-10-22T03:38:16.048Z,91.61
2022-10-22T03:40:45.230Z,91.61
2022-10-22T03:43:13.563Z,91.59
2022-10-22T03:45:41.534Z,92.37
2022-10-22T03:48:09.425Z,91.73
2022-10-22T03:50:37.369Z,91.55
2022-10-22T03:53:07.120Z,91.17
2022-10-22T03:55:36.289Z,91.21
2022-10-22T03:58:04.123Z,91.55
2022-10-22T04:00:31.956Z,92.43
2022-10-22T04:02:59.784Z,92.64
2022-10-22T04:05:27.656Z,92.83
2022-10-22T04:07:55.506Z,91.68
2022-10-22T04:10:23.300Z,92.02
2022-10-22T04:12:52.552Z,92.41
2022-10-22T04:15:20.389Z,92.67
2022-10-22T04:17:48.270Z,91.83
2022-10-22T04:20:16.122Z,91.44
2022-10-22T04:22:43.938Z,91.81
2022-10-22T04:25:11.783Z,92.14
2022-10-22T04:27:39.876Z,92.43
2022-10-22T04:30:10.713Z,92.13
2022-10-22T04:32:38.581Z,92.89
2022-10-22T04:35:07.030Z,92.90
2022-10-22T04:37:35.303Z,92.63
2022-10-22T04:40:03.139Z,93.05
2022-10-22T04:42:31.009Z,92.54
2022-10-22T04:44:58.844Z,91.63
2022-10-22T04:47:28.093Z,90.79
2022-10-22T04:49:55.938Z,91.80
2022-10-22T04:52:23.783Z,91.68
2022-10-22T04:54:51.627Z,92.04
2022-10-22T04:57:19.433Z,92.80
2022-10-22T04:59:47.313Z,92.58
2022-10-22T05:02:15.132Z,92.05
2022-10-22T05:04:46.262Z,92.34
2022-10-22T05:07:14.120Z,92.38
2022-10-22T05:09:42.213Z,92.12
2022-10-22T05:12:10.032Z,92.36
2022-10-22T05:14:40.292Z,92.30
2022-10-22T05:17:10.523Z,92.14
2022-10-22T05:19:38.341Z,91.59
2022-10-22T05:22:07.568Z,91.71
2022-10-22T05:24:37.123Z,90.88
2022-10-22T05:27:05.796Z,91.35
2022-10-22T05:29:33.899Z,91.25
2022-10-22T05:32:01.831Z,91.98
2022-10-22T05:34:29.687Z,91.41
2022-10-22T05:36:57.587Z,92.14
2022-10-22T05:39:26.926Z,92.30
2022-10-22T05:41:54.929Z,91.37
2022-10-22T05:44:22.802Z,90.88
2022-10-22T05:46:50.755Z,90.81
2022-10-22T05:49:18.643Z,90.33
2022-10-22T05:51:46.814Z,90.11
2022-10-22T05:54:18.483Z,89.88
2022-10-22T05:56:47.864Z,89.86
2022-10-22T05:59:15.800Z,90.16
2022-10-22T06:01:43.663Z,91.18
2022-10-22T06:04:12.917Z,90.93
2022-10-22T06:06:45.310Z,90.13
2022-10-22T06:09:18.424Z,90.71
2022-10-22T06:11:48.832Z,90.52
2022-10-22T06:14:17.491Z,91.03
2022-10-22T06:16:45.451Z,90.64
2022-10-22T06:19:15.035Z,91.01
2022-10-22T06:21:43.167Z,90.60
2022-10-22T06:24:12.209Z,89.93
2022-10-22T06:26:40.196Z,90.10
2022-10-22T06:29:09.772Z,89.90
2022-10-22T06:31:37.929Z,90.90
2022-10-22T06:34:06.678Z,90.39
2022-10-22T06:36:34.947Z,90.73
2022-10-22T06:39:02.958Z,90.80
2022-10-22T06:41:30.835Z,90.90
2022-10-22T06:44:00.051Z,90.84
2022-10-22T06:46:29.976Z,90.91
2022-10-22T06:48:59.811Z,91.26
2022-10-22T06:51:29.028Z,91.67
2022-10-22T06:53:58.104Z,90.85
2022-10-22T06:56:27.930Z,90.62
2022-10-22T06:58:57.529Z,90.64
2022-10-22T07:01:27.371Z,91.05
2022-10-22T07:03:56.647Z,90.65
2022-10-22T07:06:25.803Z,89.88
2022-10-22T07:08:55.243Z,91.21
2022-10-22T07:11:24.961Z,91.36
2022-10-22T07:13:55.287Z,89.76
2022-10-22T07:16:28.040Z,90.41
2022-10-22T07:19:01.670Z,90.08
2022-10-22T07:21:29.710Z,90.90
2022-10-22T07:23:57.894Z,88.86
2022-10-22T07:26:28.159Z,89.60
2022-10-22T07:28:56.201Z,89.57
2022-10-22T07:31:24.588Z,90.20
2022-10-22T07:33:52.655Z,89.06
2022-10-22T07:36:21.943Z,89.81
2022-10-22T07:38:54.310Z,89.97
2022-10-22T07:41:23.611Z,89.79
2022-10-22T07:43:51.888Z,89.74
2022-10-22T07:46:20.016Z,89.27
2022-10-22T07:48:47.903Z,89.36
2022-10-22T07:51:16.289Z,89.04
2022-10-22T07:53:45.536Z,90.05
2022-10-22T07:56:13.927Z,90.24
2022-10-22T07:58:42.208Z,87.32
2022-10-22T08:01:10.490Z,88.32
2022-10-22T08:03:38.424Z,89.28
2022-10-22T08:06:06.939Z,89.11
2022-10-22T08:08:34.868Z,88.39
2022-10-22T08:11:04.219Z,88.43
2022-10-22T08:13:32.372Z,89.15
2022-10-22T08:16:01.755Z,88.25
2022-10-22T08:18:30.349Z,88.66
2022-10-22T08:20:58.526Z,88.88
2022-10-22T08:23:28.674Z,89.29
2022-10-22T08:25:57.923Z,89.28
2022-10-22T08:28:28.721Z,89.53
2022-10-22T08:30:56.661Z,89.02
2022-10-22T08:33:24.518Z,89.69
2022-10-22T08:35:53.083Z,88.66
2022-10-22T08:38:21.604Z,90.14
2022-10-22T08:40:52.674Z,90.01
2022-10-22T08:43:47.412Z,89.53
2022-10-22T08:46:33.992Z,89.26
2022-10-22T08:49:04.425Z,88.16
2022-10-22T08:51:35.452Z,88.96
2022-10-22T08:54:24.311Z,89.29
2022-10-22T08:57:02.547Z,87.42
2022-10-22T08:59:38.769Z,89.64
2022-10-22T09:02:23.855Z,89.38
2022-10-22T09:04:58.204Z,87.89
2022-10-22T09:07:26.308Z,88.16
2022-10-22T09:09:58.355Z,88.24
2022-10-22T09:12:28.151Z,89.12
2022-10-22T09:14:57.401Z,88.40
2022-10-22T09:17:35.315Z,88.82
2022-10-22T09:20:12.932Z,88.77
2022-10-22T09:22:47.828Z,87.29
2022-10-22T09:25:21.332Z,86.94
2022-10-22T09:27:50.642Z,88.57
2022-10-22T09:30:21.975Z,87.07
2022-10-22T09:32:53.093Z,87.67
2022-10-22T09:35:25.164Z,87.20
2022-10-22T09:37:55.396Z,86.84
2022-10-22T09:40:24.722Z,86.61
2022-10-22T09:42:52.650Z,87.17
2022-10-22T09:45:25.668Z,86.93
2022-10-22T09:48:12.746Z,86.53
2022-10-22T09:50:45.259Z,84.23
2022-10-22T09:53:19.018Z,85.00
2022-10-22T09:55:52.727Z,85.08
2022-10-22T09:58:21.021Z,86.25
2022-10-22T10:00:54.613Z,85.25
2022-10-22T10:03:25.404Z,86.70
2022-10-22T10:05:57.351Z,86.41
2022-10-22T10:08:27.175Z,85.63
2022-10-22T10:11:00.489Z,85.58
2022-10-22T10:13:38.224Z,86.98
2022-10-22T10:16:14.694Z,87.25
2022-10-22T10:18:57.327Z,87.66
2022-10-22T10:21:36.028Z,87.36
2022-10-22T10:24:13.043Z,87.21
2022-10-22T10:26:47.660Z,86.39
2022-10-22T10:29:29.862Z,85.26
2022-10-22T10:32:11.140Z,86.24
2022-10-22T10:34:47.327Z,85.58
2022-10-22T10:37:22.915Z,85.28
2022-10-22T10:40:11.280Z,85.63
2022-10-22T10:42:45.054Z,85.06
2022-10-22T10:45:21.258Z,85.30
2022-10-22T10:48:24.966Z,85.13
2022-10-22T10:51:04.579Z,86.73
2022-10-22T10:53:47.682Z,85.25
2022-10-22T10:56:29.711Z,85.21
2022-10-22T10:59:08.467Z,83.89
2022-10-22T11:01:41.652Z,84.55
2022-10-22T11:04:42.966Z,83.30
2022-10-22T11:07:23.270Z,81.72
2022-10-22T11:10:09.883Z,84.12
2022-10-22T11:12:42.851Z,81.94
2022-10-22T11:15:17.685Z,83.14
2022-10-22T11:17:48.517Z,80.14
2022-10-22T11:20:21.244Z,80.63
2022-10-22T11:23:17.445Z,79.42
2022-10-22T11:25:45.576Z,79.48
2022-10-22T11:28:17.965Z,76.21
2022-10-22T11:30:50.671Z,76.42
2022-10-22T11:33:22.631Z,74.75
2022-10-22T11:35:53.809Z,74.07
2022-10-22T11:38:26.266Z,75.41
2022-10-22T11:40:59.934Z,72.82
2022-10-22T11:43:30.646Z,73.09
2022-10-22T11:46:03.749Z,70.00
2022-10-22T11:48:38.097Z,71.07
2022-10-22T11:51:34.075Z,70.71
2022-10-22T11:54:04.600Z,69.32
2022-10-22T11:56:38.470Z,71.02
2022-10-22T11:59:30.072Z,69.24
2022-10-22T12:01:57.932Z,70.43
2022-10-22T12:04:41.346Z,69.85
2022-10-22T12:07:34.956Z,69.43
2022-10-22T12:10:14.968Z,70.65
2022-10-22T12:12:45.482Z,67.89
2022-10-22T12:15:25.288Z,69.97
2022-10-22T12:18:00.434Z,68.42
2022-10-22T12:20:29.533Z,69.98
2022-10-22T12:22:59.885Z,71.25
2022-10-22T12:25:35.739Z,70.89
2022-10-22T12:28:03.847Z,71.05
2022-10-22T12:30:34.732Z,71.69
2022-10-22T12:33:04.951Z,69.59
2022-10-22T12:35:35.628Z,71.62
2022-10-22T12:38:13.894Z,71.70
2022-10-22T12:40:45.966Z,72.64
2022-10-22T12:43:18.614Z,73.01
2022-10-22T12:45:48.507Z,72.89
2022-10-22T12:48:19.800Z,69.48
2022-10-22T12:50:50.582Z,69.09
2022-10-22T12:53:23.532Z,69.87
2022-10-22T12:55:53.412Z,69.70
2022-10-22T12:58:26.720Z,69.35
2022-10-22T13:00:57.759Z,70.01
2022-10-22T13:03:29.454Z,71.41
2022-10-22T13:05:57.462Z,70.22
2022-10-22T13:08:29.144Z,68.99
2022-10-22T13:10:57.028Z,67.98
2022-10-22T13:13:35.435Z,70.09
2022-10-22T13:16:18.443Z,69.66
2022-10-22T13:18:47.814Z,69.62
2022-10-22T13:21:26.359Z,69.29
2022-10-22T13:23:58.560Z,68.63
2022-10-22T13:26:33.145Z,68.10
2022-10-22T13:29:02.354Z,68.51
2022-10-22T13:31:33.559Z,67.35
2022-10-22T13:34:09.786Z,70.04
2022-10-22T13:36:39.907Z,70.29
2022-10-22T13:39:18.117Z,71.10
2022-10-22T13:41:45.995Z,71.29
2022-10-22T13:44:13.820Z,69.59
2022-10-22T13:46:42.906Z,69.01
2022-10-22T13:49:16.291Z,68.49
2022-10-22T13:51:44.642Z,67.37
2022-10-22T13:54:17.867Z,68.33
2022-10-22T13:56:45.506Z,68.08
2022-10-22T13:59:14.202Z,70.11
2022-10-22T14:01:43.036Z,68.50
2022-10-22T14:04:14.759Z,68.42
2022-10-22T14:06:42.589Z,68.14
2022-10-22T14:09:16.659Z,67.96
2022-10-22T14:11:44.554Z,69.53
2022-10-22T14:14:14.298Z,68.16
2022-10-22T14:16:42.432Z,68.98
2022-10-22T14:19:15.470Z,69.87
2022-10-22T14:21:43.387Z,67.88
2022-10-22T14:24:13.232Z,67.95
2022-10-22T14:26:42.960Z,67.91
2022-10-22T14:29:11.721Z,68.27
2022-10-22T14:34:13.416Z,69.14
2022-10-22T14:36:43.564Z,68.86
2022-10-22T14:39:11.571Z,68.40
2022-10-22T14:41:39.633Z,67.97
2022-10-22T14:44:12.551Z,68.02
2022-10-22T14:46:42.588Z,68.04
2022-10-22T14:49:10.502Z,68.85
2022-10-22T14:51:38.327Z,69.33
2022-10-22T14:54:06.182Z,68.47
2022-10-22T14:56:34.043Z,69.73
2022-10-22T14:59:01.965Z,68.61
2022-10-22T15:01:31.254Z,69.54
2022-10-22T15:03:59.058Z,69.83
2022-10-22T15:06:26.887Z,70.16
2022-10-22T15:08:54.766Z,71.07
2022-10-22T15:11:22.850Z,69.89
2022-10-22T15:13:50.678Z,69.59
2022-10-22T15:16:19.439Z,69.62
2022-10-22T15:18:48.597Z,69.20
2022-10-22T15:21:19.440Z,69.74
2022-10-22T15:23:47.661Z,69.58
2022-10-22T15:26:15.780Z,70.43
2022-10-22T15:28:44.147Z,70.40
2022-10-22T15:31:13.956Z,70.26
2022-10-22T15:33:42.930Z,69.37
2022-10-22T15:36:14.299Z,70.42
2022-10-22T15:38:42.164Z,70.63
2022-10-22T15:41:12.393Z,70.39
2022-10-22T15:43:40.317Z,70.70
2022-10-22T15:46:13.909Z,70.90
2022-10-22T15:48:42.269Z,70.69
2022-10-22T15:51:13.666Z,71.40
2022-10-22T15:53:42.293Z,72.67
2022-10-22T15:56:11.666Z,71.78
2022-10-22T15:58:39.485Z,72.34
2022-10-22T16:01:08.794Z,72.10
2022-10-22T16:03:37.000Z,72.85
2022-10-22T16:06:05.419Z,73.44
2022-10-22T16:08:35.272Z,73.14
2022-10-22T16:11:03.299Z,73.52
2022-10-22T16:13:31.354Z,73.54
2022-10-22T16:15:59.165Z,73.27
2022-10-22T16:18:27.047Z,73.90
2022-10-22T16:20:54.900Z,74.14
2022-10-22T16:23:22.739Z,73.68
2022-10-22T16:25:51.897Z,73.73
2022-10-22T16:28:19.744Z,74.09
2022-10-22T16:30:47.578Z,75.46
2022-10-22T16:33:15.459Z,75.43
2022-10-22T16:35:43.533Z,74.81
2022-10-22T16:38:12.524Z,74.80
2022-10-22T16:40:40.356Z,75.66
2022-10-22T16:43:09.551Z,76.08
2022-10-22T16:45:37.446Z,75.82
2022-10-22T16:48:05.646Z,77.04
2022-10-22T16:50:33.499Z,76.41
2022-10-22T16:53:01.305Z,76.23
2022-10-22T16:55:29.142Z,76.80
2022-10-22T16:57:57.083Z,77.09
2022-10-22T17:00:26.300Z,77.33
2022-10-22T17:02:54.297Z,77.38
2022-10-22T17:05:22.766Z,77.04
2022-10-22T17:07:51.492Z,77.78
2022-10-22T17:10:20.755Z,77.99
2022-10-22T17:12:49.610Z,78.53
2022-10-22T17:15:17.544Z,78.46
2022-10-22T17:17:50.863Z,79.29
2022-10-22T17:20:19.913Z,78.73
2022-10-22T17:22:49.439Z,78.06
2022-10-22T17:25:21.931Z,77.89
2022-10-22T17:27:50.170Z,77.79
2022-10-22T17:30:23.473Z,77.40
2022-10-22T17:32:55.853Z,77.48
2022-10-22T17:35:23.691Z,78.02
2022-10-22T17:37:51.591Z,77.53
2022-10-22T17:40:19.550Z,77.68
2022-10-22T17:42:49.246Z,77.55
2022-10-22T17:45:17.281Z,77.50
2022-10-22T17:47:45.117Z,77.78
2022-10-22T17:50:14.400Z,77.96
2022-10-22T17:52:42.897Z,78.31
2022-10-22T17:55:13.146Z,77.94
2022-10-22T17:57:41.014Z,77.73
2022-10-22T18:00:10.243Z,78.72
2022-10-22T18:02:38.104Z,77.21
2022-10-22T18:05:06.680Z,77.95
2022-10-22T18:07:35.899Z,77.59
2022-10-22T18:10:03.989Z,77.65
2022-10-22T18:12:31.776Z,79.40
2022-10-22T18:14:59.660Z,79.24
2022-10-22T18:17:27.581Z,78.28
2022-10-22T18:19:55.454Z,78.07
2022-10-22T18:22:23.330Z,78.70
2022-10-22T18:24:53.025Z,78.46
2022-10-22T18:27:20.872Z,77.88
2022-10-22T18:29:50.415Z,77.49
2022-10-22T18:32:18.272Z,77.76
2022-10-22T18:34:46.180Z,78.26
2022-10-22T18:37:13.987Z,76.85
2022-10-22T18:39:41.813Z,75.81
2022-10-22T18:42:11.075Z,74.67
2022-10-22T18:44:38.978Z,74.08
2022-10-22T18:47:08.610Z,73.70
2022-10-22T18:49:36.415Z,73.60
2022-10-22T18:52:04.654Z,72.59
2022-10-22T18:54:32.493Z,72.27
2022-10-22T18:57:02.841Z,71.67
2022-10-22T18:59:32.640Z,71.28
2022-10-22T19:02:00.520Z,71.46
2022-10-22T19:04:33.232Z,72.13
2022-10-22T19:07:01.249Z,72.77
2022-10-22T19:09:29.135Z,72.09
2022-10-22T19:11:57.037Z,72.43
2022-10-22T19:14:25.055Z,71.80
2022-10-22T19:16:54.295Z,72.88
2022-10-22T19:19:22.629Z,73.28
2022-10-22T19:21:50.758Z,73.39
2022-10-22T19:24:20.774Z,74.68
2022-10-22T19:26:49.625Z,74.48
2022-10-22T19:29:19.357Z,74.31
2022-10-22T19:31:47.596Z,74.23
2022-10-22T19:34:16.809Z,75.57
2022-10-22T19:36:44.635Z,74.89
2022-10-22T19:39:16.226Z,74.80
2022-10-22T19:41:44.761Z,75.26
2022-10-22T19:44:12.631Z,74.95
2022-10-22T19:46:40.462Z,74.72
2022-10-22T19:49:08.334Z,74.76
2022-10-22T19:51:37.857Z,74.49
2022-10-22T19:54:08.871Z,74.09
2022-10-22T19:56:37.669Z,74.66
2022-10-22T19:59:06.529Z,74.83
2022-10-22T20:01:34.687Z,74.37
2022-10-22T20:04:02.580Z,74.35
2022-10-22T20:06:30.950Z,74.96
2022-10-22T20:09:00.448Z,75.17
2022-10-22T20:11:30.074Z,74.81
2022-10-22T20:13:58.630Z,75.72
2022-10-22T20:16:29.937Z,77.23
2022-10-22T20:19:01.052Z,77.18
2022-10-22T20:21:28.880Z,76.60
2022-10-22T20:23:57.418Z,76.32
2022-10-22T20:26:28.243Z,77.66
2022-10-22T20:28:56.618Z,77.95
2022-10-22T20:31:27.828Z,77.24
2022-10-22T20:33:57.471Z,77.73
2022-10-22T20:36:26.420Z,78.06
2022-10-22T20:38:54.268Z,76.90
2022-10-22T20:41:23.869Z,76.78
2022-10-22T20:43:53.532Z,77.03
2022-10-22T20:46:23.991Z,77.24
2022-10-22T20:48:52.575Z,77.44
2022-10-22T20:51:21.031Z,77.18
2022-10-22T20:53:49.013Z,76.95
2022-10-22T20:56:17.542Z,76.91
2022-10-22T20:58:48.839Z,77.63
2022-10-22T21:01:21.793Z,77.13
2022-10-22T21:03:49.965Z,77.10
2022-10-22T21:06:17.903Z,78.25
2022-10-22T21:08:45.873Z,78.27
2022-10-22T21:11:13.675Z,77.55
2022-10-22T21:13:41.553Z,77.54
2022-10-22T21:16:10.716Z,78.32
2022-10-22T21:18:40.002Z,79.54
2022-10-22T21:21:08.616Z,79.77
2022-10-22T21:23:37.378Z,79.87
2022-10-22T21:26:05.816Z,79.35
2022-10-22T21:28:35.716Z,79.76
2022-10-22T21:31:04.690Z,78.73
2022-10-22T21:33:32.811Z,79.60
2022-10-22T21:36:02.017Z,79.43
2022-10-22T21:38:29.852Z,78.28
2022-10-22T21:40:57.675Z,77.99
2022-10-22T21:43:25.630Z,77.97
2022-10-22T21:46:05.411Z,77.73
2022-10-22T21:48:35.952Z,77.63
2022-10-22T21:51:09.156Z,78.19
2022-10-22T21:53:37.180Z,78.11
2022-10-22T21:56:05.934Z,78.30
2022-10-22T21:58:35.192Z,78.46
2022-10-22T22:01:03.094Z,77.64
2022-10-22T22:03:31.049Z,77.73
2022-10-22T22:05:59.776Z,78.24
2022-10-22T22:08:29.213Z,78.73
2022-10-22T22:11:03.092Z,78.00
2022-10-22T22:13:33.998Z,78.35
2022-10-22T22:16:02.878Z,78.36
2022-10-22T22:18:31.185Z,78.64
2022-10-22T22:20:59.734Z,78.21
2022-10-22T22:23:28.966Z,77.78
2022-10-22T22:25:59.656Z,78.13
2022-10-22T22:28:27.624Z,77.98
2022-10-22T22:30:55.518Z,78.74
2022-10-22T22:33:23.398Z,78.55
2022-10-22T22:35:51.432Z,79.33
2022-10-22T22:38:19.352Z,79.21
2022-10-22T22:40:48.563Z,80.33
2022-10-22T22:43:16.415Z,79.98
2022-10-22T22:45:44.359Z,80.35
2022-10-22T22:48:12.217Z,80.92
2022-10-22T22:50:40.048Z,80.77
2022-10-22T22:53:08.008Z,80.89
2022-10-22T22:55:36.140Z,81.33
2022-10-22T22:58:05.386Z,81.41
2022-10-22T23:00:33.267Z,81.80
2022-10-22T23:03:01.167Z,80.66
2022-10-22T23:05:28.985Z,81.40
2022-10-22T23:07:57.298Z,81.21
2022-10-22T23:10:25.087Z,81.91
2022-10-22T23:12:52.928Z,81.15
2022-10-22T23:15:22.088Z,81.85
2022-10-22T23:17:49.891Z,81.20
2022-10-22T23:20:17.920Z,80.71
2022-10-22T23:22:45.782Z,81.85
2022-10-22T23:25:13.582Z,81.83
2022-10-22T23:27:41.635Z,81.38
2022-10-22T23:30:10.857Z,80.83
2022-10-22T23:32:40.119Z,80.36
2022-10-22T23:35:08.541Z,81.04
2022-10-22T23:37:36.331Z,80.95
2022-10-22T23:40:04.514Z,82.03
2022-10-22T23:42:32.383Z,82.46
2022-10-22T23:45:00.234Z,81.72
2022-10-22T23:47:28.188Z,81.80
2022-10-22T23:49:57.348Z,82.74
2022-10-22T23:52:25.275Z,82.17
2022-10-22T23:54:53.091Z,82.22
2022-10-22T23:57:20.933Z,82.02
2022-10-22T23:59:48.728Z,81.11
